createdAt,value
2022-11-16T00:02:37.989Z,100059.38
2022-11-16T00:05:43.664Z,100057.66
2022-11-16T00:09:10.826Z,100053.28
2022-11-16T00:12:14.721Z,100049.12
2022-11-16T00:15:17.439Z,100052.66
2022-11-16T00:18:20.669Z,100043.94
2022-11-16T00:21:23.909Z,100044.88
2022-11-16T00:24:27.243Z,100034.38
2022-11-16T00:27:30.130Z,100036.13
2022-11-16T00:30:33.158Z,100028.38
2022-11-16T00:33:36.140Z,100028.38
2022-11-16T00:36:44.533Z,100023.28
2022-11-16T00:39:47.083Z,100025.06
2022-11-16T00:42:50.069Z,100027.53
2022-11-16T00:45:53.831Z,100022.34
2022-11-16T00:48:57.445Z,100025.00
2022-11-16T00:52:03.396Z,100012.09
2022-11-16T00:55:07.415Z,100011.25
2022-11-16T00:58:12.198Z,100001.72
2022-11-16T01:01:19.193Z,99994.03
2022-11-16T01:04:28.387Z,100000.94
2022-11-16T01:07:31.815Z,99986.16
2022-11-16T01:10:34.993Z,99992.09
2022-11-16T01:13:38.863Z,99980.00
2022-11-16T01:16:42.833Z,99987.84
2022-11-16T01:19:45.836Z,99978.41
2022-11-16T01:22:49.548Z,99971.47
2022-11-16T01:26:01.829Z,99963.72
2022-11-16T01:29:05.335Z,99959.38
2022-11-16T01:32:09.165Z,99945.50
2022-11-16T01:35:18.720Z,99945.47
2022-11-16T01:38:27.137Z,99942.88
2022-11-16T01:41:32.619Z,99937.69
2022-11-16T01:44:35.940Z,99935.91
2022-11-16T01:47:39.633Z,99936.06
2022-11-16T01:50:44.103Z,99928.34
2022-11-16T01:53:47.738Z,99927.41
2022-11-16T01:56:54.368Z,99919.75
2022-11-16T02:00:01.378Z,99908.53
2022-11-16T02:03:05.746Z,99919.75
2022-11-16T02:06:23.333Z,99907.59
2022-11-16T02:09:59.008Z,99894.69
2022-11-16T02:13:27.729Z,99893.03
2022-11-16T02:17:02.024Z,99889.66
2022-11-16T02:20:12.316Z,99892.25
2022-11-16T02:23:33.847Z,99882.69
2022-11-16T02:27:07.575Z,99881.88
2022-11-16T02:30:10.995Z,99872.31
2022-11-16T02:33:21.314Z,99873.22
2022-11-16T02:36:25.574Z,99866.31
2022-11-16T02:39:31.805Z,99872.47
2022-11-16T02:42:45.532Z,99863.72
2022-11-16T02:45:50.889Z,99863.84
2022-11-16T02:49:00.169Z,99857.88
2022-11-16T02:52:04.498Z,99850.00
2022-11-16T02:55:08.974Z,99850.06
2022-11-16T02:58:14.556Z,99844.84
2022-11-16T03:01:35.375Z,99857.88
2022-11-16T03:05:17.291Z,99848.41
2022-11-16T03:08:37.389Z,99843.16
2022-11-16T03:12:00.363Z,99838.78
2022-11-16T03:15:12.137Z,99838.78
2022-11-16T03:18:16.735Z,99833.53
2022-11-16T03:21:27.296Z,99838.72
2022-11-16T03:24:31.532Z,99827.53
2022-11-16T03:27:47.479Z,99829.28
2022-11-16T03:31:06.028Z,99823.38
2022-11-16T03:34:16.339Z,99809.53
2022-11-16T03:37:21.118Z,99814.72
2022-11-16T03:40:28.056Z,99809.53
2022-11-16T03:43:33.077Z,99800.97
2022-11-16T03:46:36.578Z,99799.19
2022-11-16T03:49:44.662Z,99805.31
2022-11-16T03:52:48.939Z,99795.00
2022-11-16T03:55:52.206Z,99787.19
2022-11-16T03:58:55.382Z,99779.37
2022-11-16T04:01:58.366Z,99782.69
2022-11-16T04:05:21.083Z,99781.84
2022-11-16T04:08:43.939Z,99774.94
2022-11-16T04:12:10.198Z,99780.16
2022-11-16T04:15:32.000Z,99773.25
2022-11-16T04:19:07.303Z,99770.66
2022-11-16T04:22:37.415Z,99761.19
2022-11-16T04:25:43.729Z,99761.25
2022-11-16T04:28:47.994Z,99759.63
2022-11-16T04:32:10.030Z,99754.44
2022-11-16T04:35:29.553Z,99755.22
2022-11-16T04:38:33.832Z,99757.81
2022-11-16T04:41:57.029Z,99743.13
2022-11-16T04:45:23.929Z,99743.13
2022-11-16T04:48:27.526Z,99743.13
2022-11-16T04:51:34.110Z,99746.62
2022-11-16T04:54:39.367Z,99744.78
2022-11-16T04:57:43.940Z,99740.53
2022-11-16T05:00:48.648Z,99742.25
2022-11-16T05:03:55.094Z,99743.97
2022-11-16T05:07:00.508Z,99738.72
2022-11-16T05:10:04.490Z,99736.19
2022-11-16T05:13:11.089Z,99737.06
2022-11-16T05:16:15.236Z,99734.41
2022-11-16T05:19:38.986Z,99731.00
2022-11-16T05:22:43.121Z,99736.13
2022-11-16T05:25:50.000Z,99734.47
2022-11-16T05:28:55.663Z,99725.91
2022-11-16T05:32:00.153Z,99716.34
2022-11-16T05:35:09.211Z,99715.41
2022-11-16T05:38:21.241Z,99721.50
2022-11-16T05:41:26.138Z,99722.38
2022-11-16T05:44:33.180Z,99711.09
2022-11-16T05:47:37.636Z,99704.25
2022-11-16T05:50:43.155Z,99698.09
2022-11-16T05:53:49.358Z,99705.81
2022-11-16T05:56:55.223Z,99706.75
2022-11-16T06:00:01.082Z,99697.22
2022-11-16T06:03:08.022Z,99702.50
2022-11-16T06:06:15.303Z,99699.00
2022-11-16T06:09:23.022Z,99689.47
2022-11-16T06:12:36.012Z,99692.06
2022-11-16T06:15:51.111Z,99695.63
2022-11-16T06:19:05.924Z,99699.16
2022-11-16T06:22:09.762Z,99697.50
2022-11-16T06:25:16.174Z,99698.47
2022-11-16T06:28:20.057Z,99694.16
2022-11-16T06:31:25.110Z,99692.47
2022-11-16T06:34:30.671Z,99693.38
2022-11-16T06:37:34.406Z,99690.84
2022-11-16T06:40:54.060Z,99688.25
2022-11-16T06:44:06.833Z,99679.56
2022-11-16T06:47:13.550Z,99679.66
2022-11-16T06:50:19.386Z,99671.03
2022-11-16T06:53:29.025Z,99671.03
2022-11-16T06:56:38.387Z,99660.56
2022-11-16T06:59:44.035Z,99662.47
2022-11-16T07:02:48.395Z,99657.31
2022-11-16T07:05:57.031Z,99660.75
2022-11-16T07:09:07.117Z,99665.25
2022-11-16T07:12:15.075Z,99655.75
2022-11-16T07:15:22.968Z,99655.84
2022-11-16T07:18:29.499Z,99656.88
2022-11-16T07:21:33.350Z,99656.72
2022-11-16T07:24:38.176Z,99655.84
2022-11-16T07:27:41.259Z,99655.00
2022-11-16T07:30:47.301Z,99647.19
2022-11-16T07:33:53.268Z,99642.81
2022-11-16T07:37:06.410Z,99650.56
2022-11-16T07:40:10.262Z,99649.81
2022-11-16T07:43:14.503Z,99642.97
2022-11-16T07:46:49.469Z,99648.97
2022-11-16T07:49:53.422Z,99645.47
2022-11-16T07:53:00.220Z,99643.00
2022-11-16T07:56:09.613Z,99635.25
2022-11-16T07:59:16.974Z,99634.56
2022-11-16T08:02:21.115Z,99631.91
2022-11-16T08:05:27.973Z,99625.84
2022-11-16T08:08:33.657Z,99619.94
2022-11-16T08:11:45.484Z,99614.84
2022-11-16T08:14:48.746Z,99622.63
2022-11-16T08:17:52.299Z,99625.28
2022-11-16T08:20:59.854Z,99623.47
2022-11-16T08:24:06.276Z,99619.25
2022-11-16T08:27:15.436Z,99616.84
2022-11-16T08:30:20.028Z,99623.78
2022-11-16T08:33:24.459Z,99625.50
2022-11-16T08:36:29.034Z,99623.69
2022-11-16T08:39:34.680Z,99616.03
2022-11-16T08:42:43.430Z,99620.34
2022-11-16T08:45:52.631Z,99610.81
2022-11-16T08:48:57.910Z,99607.47
2022-11-16T08:55:24.093Z,99597.25
2022-11-16T08:58:28.183Z,99599.84
2022-11-16T09:01:32.968Z,99603.47
2022-11-16T09:04:41.370Z,99604.37
2022-11-16T09:07:47.519Z,99603.63
2022-11-16T09:10:53.263Z,99602.66
2022-11-16T09:17:23.068Z,99590.72
2022-11-16T09:20:30.141Z,99588.16
2022-11-16T09:23:33.857Z,99595.25
2022-11-16T09:26:40.370Z,99590.19
2022-11-16T09:29:44.019Z,99586.75
2022-11-16T09:32:47.987Z,99584.19
2022-11-16T09:35:51.032Z,99584.97
2022-11-16T09:39:25.934Z,99585.03
2022-11-16T09:42:41.069Z,99585.19
2022-11-16T09:46:04.015Z,99576.50
2022-11-16T09:49:17.547Z,99568.09
2022-11-16T09:52:28.238Z,99561.25
2022-11-16T09:55:42.418Z,99559.69
2022-11-16T09:59:23.239Z,99551.13
2022-11-16T10:02:54.010Z,99545.22
2022-11-16T10:06:06.231Z,99548.75
2022-11-16T10:09:12.730Z,99547.78
2022-11-16T10:12:43.541Z,99533.91
2022-11-16T10:16:00.507Z,99521.78
2022-11-16T10:19:27.110Z,99517.56
2022-11-16T10:22:49.924Z,99523.72
2022-11-16T10:26:21.881Z,99510.59
2022-11-16T10:29:50.957Z,99510.66
2022-11-16T10:33:00.724Z,99513.09
2022-11-16T10:36:11.035Z,99503.56
2022-11-16T10:39:16.991Z,99498.53
2022-11-16T10:42:31.935Z,99494.97
2022-11-16T10:46:16.029Z,99483.72
2022-11-16T10:49:32.778Z,99475.13
2022-11-16T10:52:37.119Z,99464.69
2022-11-16T10:55:41.970Z,99469.97
2022-11-16T10:59:01.353Z,99470.78
2022-11-16T11:02:36.796Z,99462.97
2022-11-16T11:05:53.986Z,99463.91
2022-11-16T11:09:23.477Z,99454.44
2022-11-16T11:12:40.282Z,99450.94
2022-11-16T11:15:48.933Z,99444.75
2022-11-16T11:18:54.884Z,99440.50
2022-11-16T11:22:03.089Z,99436.16
2022-11-16T11:25:23.063Z,99436.22
2022-11-16T11:28:38.626Z,99424.13
2022-11-16T11:31:49.762Z,99435.44
2022-11-16T11:34:54.471Z,99429.37
2022-11-16T11:38:06.309Z,99427.56
2022-11-16T11:41:27.707Z,99425.84
2022-11-16T11:44:50.588Z,99425.00
2022-11-16T11:48:02.615Z,99415.50
2022-11-16T11:51:31.799Z,99412.91
2022-11-16T11:54:45.986Z,99407.69
2022-11-16T11:57:55.733Z,99403.34
2022-11-16T12:01:39.092Z,99397.28
2022-11-16T12:04:54.315Z,99395.62
2022-11-16T12:08:08.114Z,99392.19
2022-11-16T12:11:38.889Z,99390.56
2022-11-16T12:15:02.816Z,99388.91
2022-11-16T12:18:45.748Z,99385.44
2022-11-16T12:22:16.377Z,99387.19
2022-11-16T12:25:23.988Z,99388.88
2022-11-16T12:29:00.217Z,99386.28
2022-11-16T12:32:32.289Z,99381.09
2022-11-16T12:36:00.983Z,99381.91
2022-11-16T12:39:48.149Z,99377.59
2022-11-16T12:42:59.132Z,99373.28
2022-11-16T12:46:49.004Z,99368.13
2022-11-16T12:49:56.155Z,99361.97
2022-11-16T12:53:21.878Z,99363.72
2022-11-16T12:56:58.046Z,99358.53
2022-11-16T13:00:14.076Z,99359.47
2022-11-16T13:03:46.937Z,99370.72
2022-11-16T13:07:10.375Z,99362.91
2022-11-16T13:10:28.136Z,99361.19
2022-11-16T13:13:36.682Z,99363.72
2022-11-16T13:16:47.627Z,99361.94
2022-11-16T13:19:59.136Z,99359.41
2022-11-16T13:23:08.153Z,99355.91
2022-11-16T13:26:28.485Z,99356.72
2022-11-16T13:29:59.904Z,99358.47
2022-11-16T13:33:51.072Z,99357.66
2022-11-16T13:36:54.801Z,99350.72
2022-11-16T13:40:04.938Z,99354.09
2022-11-16T13:43:12.029Z,99347.22
2022-11-16T13:46:48.795Z,99342.91
2022-11-16T13:50:03.034Z,99344.59
2022-11-16T13:56:49.778Z,99341.00
2022-11-16T14:00:13.975Z,99342.72
2022-11-16T14:03:22.968Z,99342.72
2022-11-16T14:06:31.451Z,99345.37
2022-11-16T14:09:45.323Z,99339.41
2022-11-16T14:12:54.149Z,99333.22
2022-11-16T14:16:19.690Z,99333.19
2022-11-16T14:19:47.663Z,99332.38
2022-11-16T14:23:20.257Z,99334.91
2022-11-16T14:26:40.262Z,99333.09
2022-11-16T14:30:03.153Z,99334.81
2022-11-16T14:33:15.085Z,99319.25
2022-11-16T14:36:43.060Z,99307.84
2022-11-16T14:39:51.948Z,99307.09
2022-11-16T14:43:20.220Z,99305.28
2022-11-16T14:46:39.147Z,99311.38
2022-11-16T14:49:56.099Z,99302.72
2022-11-16T14:53:05.917Z,99308.78
2022-11-16T14:56:16.953Z,99307.97
2022-11-16T14:59:39.882Z,99313.13
2022-11-16T15:03:02.164Z,99304.41
2022-11-16T15:06:23.289Z,99301.03
2022-11-16T15:09:38.241Z,99312.28
2022-11-16T15:12:44.162Z,99310.53
2022-11-16T15:16:20.939Z,99304.38
2022-11-16T15:19:30.821Z,99301.56
2022-11-16T15:22:47.023Z,99299.87
2022-11-16T15:25:56.557Z,99292.91
2022-11-16T15:29:01.541Z,99296.28
2022-11-16T15:32:08.263Z,99293.69
2022-11-16T15:35:27.126Z,99291.94
2022-11-16T15:38:40.933Z,99289.47
2022-11-16T15:42:00.453Z,99284.28
2022-11-16T15:45:23.947Z,99273.66
2022-11-16T15:48:30.244Z,99284.13
2022-11-16T15:51:46.877Z,99290.03
2022-11-16T15:55:06.861Z,99284.84
2022-11-16T15:58:26.670Z,99289.16
2022-11-16T16:01:33.998Z,99286.59
2022-11-16T16:04:53.972Z,99287.38
2022-11-16T16:08:00.974Z,99289.19
2022-11-16T16:11:27.937Z,99289.28
2022-11-16T16:14:38.387Z,99284.09
2022-11-16T16:17:46.973Z,99278.84
2022-11-16T16:21:03.150Z,99283.91
2022-11-16T16:24:09.677Z,99278.78
2022-11-16T16:27:22.313Z,99277.16
2022-11-16T16:30:28.469Z,99273.69
2022-11-16T16:33:34.427Z,99281.47
2022-11-16T16:36:46.952Z,99276.34
2022-11-16T16:39:53.888Z,99278.13
2022-11-16T16:43:04.431Z,99284.22
2022-11-16T16:46:14.318Z,99281.56
2022-11-16T16:49:27.119Z,99285.09
2022-11-16T16:52:35.132Z,99270.37
2022-11-16T16:55:47.647Z,99275.59
2022-11-16T16:58:52.933Z,99273.78
2022-11-16T17:01:58.148Z,99266.84
2022-11-16T17:05:15.956Z,99265.09
2022-11-16T17:08:39.952Z,99270.37
2022-11-16T17:11:53.153Z,99261.69
2022-11-16T17:14:58.456Z,99266.81
2022-11-16T17:18:03.905Z,99252.97
2022-11-16T17:21:10.278Z,99255.56
2022-11-16T17:24:22.632Z,99254.78
2022-11-16T17:27:38.114Z,99265.16
2022-11-16T17:30:54.859Z,99252.13
2022-11-16T17:34:00.919Z,99263.34
2022-11-16T17:37:19.914Z,99257.34
2022-11-16T17:40:34.163Z,99254.69
2022-11-16T17:43:52.000Z,99256.47
2022-11-16T17:47:12.942Z,99258.25
2022-11-16T17:50:19.160Z,99252.16
2022-11-16T17:53:31.367Z,99253.91
2022-11-16T17:56:54.973Z,99251.31
2022-11-16T18:00:00.359Z,99256.53
2022-11-16T18:03:18.158Z,99254.81
2022-11-16T18:06:32.910Z,99247.88
2022-11-16T18:09:46.068Z,99258.31
2022-11-16T18:12:53.975Z,99249.62
2022-11-16T18:16:16.129Z,99247.00
2022-11-16T18:19:27.891Z,99249.59
2022-11-16T18:22:32.930Z,99247.81
2022-11-16T18:25:38.309Z,99247.84
2022-11-16T18:28:48.649Z,99244.38
2022-11-16T18:32:00.028Z,99240.88
2022-11-16T18:35:11.988Z,99240.88
2022-11-16T18:38:26.946Z,99239.16
2022-11-16T18:41:53.284Z,99250.47
2022-11-16T18:45:06.977Z,99240.91
2022-11-16T18:48:14.973Z,99247.00
2022-11-16T18:51:35.977Z,99238.31
2022-11-16T18:54:52.888Z,99233.13
2022-11-16T18:57:58.501Z,99227.00
2022-11-16T19:01:19.046Z,99222.63
2022-11-16T19:04:32.163Z,99225.22
2022-11-16T19:07:53.834Z,99236.47
2022-11-16T19:11:13.009Z,99228.63
2022-11-16T19:14:26.491Z,99224.28
2022-11-16T19:17:53.420Z,99217.38
2022-11-16T19:21:15.148Z,99212.16
2022-11-16T19:24:18.972Z,99213.84
2022-11-16T19:27:32.862Z,99216.37
2022-11-16T19:30:39.662Z,99224.16
2022-11-16T19:33:49.998Z,99225.03
2022-11-16T19:36:57.961Z,99222.47
2022-11-16T19:40:05.453Z,99228.56
2022-11-16T19:43:12.032Z,99227.72
2022-11-16T19:46:21.543Z,99228.56
2022-11-16T19:49:27.528Z,99219.84
2022-11-16T19:52:44.968Z,99212.78
2022-11-16T19:55:56.503Z,99218.88
2022-11-16T19:59:06.032Z,99215.44
2022-11-16T20:02:16.808Z,99218.94
2022-11-16T20:05:36.842Z,99224.19
2022-11-16T20:08:42.573Z,99223.31
2022-11-16T20:11:47.418Z,99228.56
2022-11-16T20:14:55.175Z,99227.66
2022-11-16T20:17:59.317Z,99226.84
2022-11-16T20:21:34.234Z,99237.25
2022-11-16T20:24:39.367Z,99229.44
2022-11-16T20:27:48.955Z,99232.88
2022-11-16T20:30:54.294Z,99225.06
2022-11-16T20:34:07.978Z,99228.50
2022-11-16T20:37:12.593Z,99219.78
2022-11-16T20:40:15.836Z,99223.31
2022-11-16T20:43:20.332Z,99219.00
2022-11-16T20:46:26.568Z,99219.88
2022-11-16T20:49:30.955Z,99220.72
2022-11-16T20:52:43.060Z,99221.66
2022-11-16T20:55:50.216Z,99212.97
2022-11-16T20:58:58.923Z,99215.56
2022-11-16T21:02:03.359Z,99211.13
2022-11-16T21:05:10.027Z,99216.37
2022-11-16T21:08:15.969Z,99210.31
2022-11-16T21:11:30.147Z,99205.12
2022-11-16T21:14:34.360Z,99206.84
2022-11-16T21:17:54.167Z,99210.31
2022-11-16T21:21:07.153Z,99203.41
2022-11-16T21:24:12.931Z,99203.34
2022-11-16T21:27:16.557Z,99203.34
2022-11-16T21:30:20.147Z,99192.06
2022-11-16T21:33:33.227Z,99188.56
2022-11-16T21:36:43.562Z,99190.34
2022-11-16T21:39:52.652Z,99191.19
2022-11-16T21:43:00.180Z,99184.22
2022-11-16T21:46:08.125Z,99174.69
2022-11-16T21:49:11.097Z,99172.03
2022-11-16T21:52:18.014Z,99172.03
2022-11-16T21:55:21.714Z,99169.41
2022-11-16T21:58:33.873Z,99174.59
2022-11-16T22:01:57.890Z,99175.41
2022-11-16T22:05:31.892Z,99158.91
2022-11-16T22:08:43.851Z,99153.66
2022-11-16T22:11:46.950Z,99148.47
2022-11-16T22:14:51.863Z,99155.37
2022-11-16T22:17:54.961Z,99166.59
2022-11-16T22:21:00.864Z,99178.66
2022-11-16T22:24:10.868Z,99190.72
2022-11-16T22:27:16.194Z,99196.78
2022-11-16T22:30:20.019Z,99189.88
2022-11-16T22:33:24.977Z,99182.03
2022-11-16T22:36:28.490Z,99178.59
2022-11-16T22:39:31.614Z,99182.06
2022-11-16T22:42:35.188Z,99177.72
2022-11-16T22:45:38.197Z,99180.28
2022-11-16T22:48:43.401Z,99207.06
2022-11-16T22:51:46.156Z,99205.34
2022-11-16T22:54:50.731Z,99204.50
2022-11-16T22:57:55.625Z,99187.09
2022-11-16T23:00:58.687Z,99194.81
2022-11-16T23:04:01.577Z,99180.94
2022-11-16T23:07:04.782Z,99180.09
2022-11-16T23:10:09.172Z,99179.19
2022-11-16T23:13:34.102Z,99184.38
2022-11-16T23:16:41.148Z,99180.06
2022-11-16T23:20:04.130Z,99173.19
2022-11-16T23:23:36.182Z,99173.19
2022-11-16T23:26:59.862Z,99171.47
2022-11-16T23:30:12.064Z,99175.78
2022-11-16T23:33:16.073Z,99172.31
2022-11-16T23:36:19.130Z,99172.31
2022-11-16T23:39:23.189Z,99176.59
2022-11-16T23:42:43.962Z,99174.84
2022-11-16T23:45:47.245Z,99171.34
2022-11-16T23:48:49.780Z,99167.84
2022-11-16T23:51:53.697Z,99160.94
2022-11-16T23:54:56.521Z,99149.72
2022-11-16T23:57:59.824Z,99162.69
